Time;durP1;ratioP1;P1;durP2;ratioP2;P2;SDS_P1;SDS_P2;PMS_P1;PMS_P2;Temp;Humidity;BMP_temperature;BMP_pressure;BME280_temperature;BME280_humidity;BME280_pressure;Samples;Min_cycle;Max_cycle;Signal;HPM_P1;HPM_P2
2022/03/02 00:01:16;;;;;;;;;;;;;;;9.35;24.62;100041.47;4495491;31;34531;-84
2022/03/02 00:03:44;;;;;;;;;;;;;;;9.45;24.81;100033.19;4495130;31;33947;-85
2022/03/02 00:06:11;;;;;;;;;;;;;;;9.66;24.76;100036.44;4490805;31;34451;-82
2022/03/02 00:08:38;;;;;;;;;;;;;;;9.69;24.58;100036.50;4498670;31;34939;-87
2022/03/02 00:11:06;;;;;;;;;;;;;;;9.64;24.94;100025.12;4490696;31;33078;-86
2022/03/02 00:13:33;;;;;;;;;;;;;;;9.84;24.72;100027.44;4499194;31;34203;-83
2022/03/02 00:16:00;;;;;;;;;;;;;;;10.06;25.30;100024.63;4486863;31;35321;-82
2022/03/02 00:18:28;;;;;;;;;;;;;;;10.26;24.94;100017.44;4492088;31;34861;-85
2022/03/02 00:20:55;;;;;;;;;;;;;;;9.92;25.42;100029.41;4490662;31;33124;-83
2022/03/02 00:23:22;;;;;;;;;;;;;;;9.78;25.76;100032.47;4492947;31;34800;-81
2022/03/02 00:25:50;;;;;;;;;;;;;;;9.93;25.94;100026.00;4484931;31;35476;-82
2022/03/02 00:28:18;;;;;;;;;;;;;;;9.85;25.99;100030.09;4494791;31;34221;-82
2022/03/02 00:30:45;;;;;;;;;;;;;;;9.75;25.62;100028.94;4499668;31;33192;-84
2022/03/02 00:33:13;;;;;;;;;;;;;;;10.23;25.16;100023.41;4499639;31;35046;-81
2022/03/02 00:35:40;;;;;;;;;;;;;;;9.84;26.29;100019.66;4499711;31;34045;-85
2022/03/02 00:38:10;;;;;;;;;;;;;;;9.94;26.11;100013.94;4499702;31;34199;-81
2022/03/02 00:40:38;;;;;;;;;;;;;;;9.82;26.17;100021.34;4498792;31;33606;-82
2022/03/02 00:43:05;;;;;;;;;;;;;;;9.74;26.23;100014.25;4499772;31;34131;-84
2022/03/02 00:45:32;;;;;;;;;;;;;;;9.77;25.83;100009.97;4497935;31;34483;-85
2022/03/02 00:48:00;;;;;;;;;;;;;;;9.84;25.95;100009.31;4498193;31;34123;-81
2022/03/02 00:50:27;;;;;;;;;;;;;;;9.97;25.26;99998.50;4498799;31;33099;-85
2022/03/02 00:52:55;;;;;;;;;;;;;;;9.86;25.29;99998.19;4490263;31;33950;-84
2022/03/02 00:55:23;;;;;;;;;;;;;;;9.50;26.07;99991.06;4494894;31;35302;-80
2022/03/02 00:57:50;;;;;;;;;;;;;;;9.42;25.91;99992.53;4492974;31;34205;-82
2022/03/02 01:00:17;;;;;;;;;;;;;;;10.06;25.03;99984.91;4499167;31;33336;-82
2022/03/02 01:02:46;;;;;;;;;;;;;;;9.62;25.15;99979.31;4488502;31;35106;-83
2022/03/02 01:05:13;;;;;;;;;;;;;;;9.19;25.68;99973.72;4499219;31;34399;-85
2022/03/02 01:07:40;;;;;;;;;;;;;;;9.35;25.47;99975.06;4499221;31;33594;-81
2022/03/02 01:10:08;;;;;;;;;;;;;;;9.45;25.36;99965.88;4499748;31;34349;-83
2022/03/02 01:12:36;;;;;;;;;;;;;;;9.41;25.57;99971.81;4499761;31;33836;-83
2022/03/02 01:15:03;;;;;;;;;;;;;;;9.30;25.75;99970.59;4499056;31;34936;-82
2022/03/02 01:17:31;;;;;;;;;;;;;;;9.24;25.65;99961.81;4498869;31;34839;-83
2022/03/02 01:19:58;;;;;;;;;;;;;;;9.39;25.33;99966.56;4497247;31;34075;-82
2022/03/02 01:22:26;;;;;;;;;;;;;;;9.35;25.41;99958.66;4499176;31;34178;-83
2022/03/02 01:24:55;;;;;;;;;;;;;;;9.14;25.98;99957.19;4489218;31;35146;-83
2022/03/02 01:27:22;;;;;;;;;;;;;;;9.38;25.75;99951.00;4488451;31;34078;-82
2022/03/02 01:29:51;;;;;;;;;;;;;;;9.26;25.59;99951.50;4498779;31;32836;-82
2022/03/02 01:32:18;;;;;;;;;;;;;;;9.39;25.29;99945.84;4497460;31;33775;-82
2022/03/02 01:34:46;;;;;;;;;;;;;;;9.36;25.64;99944.91;4489893;31;34441;-82
2022/03/02 01:37:13;;;;;;;;;;;;;;;9.23;26.00;99938.47;4493849;31;33670;-83
2022/03/02 01:39:41;;;;;;;;;;;;;;;9.33;25.51;99937.94;4499097;31;33575;-82
2022/03/02 01:42:08;;;;;;;;;;;;;;;9.26;26.00;99942.03;4498811;31;33782;-82
2022/03/02 01:44:37;;;;;;;;;;;;;;;9.07;25.71;99931.97;4498686;31;34221;-83
2022/03/02 01:47:05;;;;;;;;;;;;;;;8.85;26.07;99934.69;4498812;31;34208;-82
2022/03/02 01:49:32;;;;;;;;;;;;;;;9.30;25.63;99930.06;4497341;31;33008;-84
2022/03/02 01:52:00;;;;;;;;;;;;;;;9.08;26.14;99925.94;4498868;31;34942;-83
2022/03/02 01:54:27;;;;;;;;;;;;;;;8.93;26.57;99928.06;4498796;31;35088;-84
2022/03/02 01:56:54;;;;;;;;;;;;;;;9.04;26.59;99923.22;4497965;31;34481;-83
2022/03/02 01:59:21;;;;;;;;;;;;;;;8.97;26.45;99927.31;4498709;31;34295;-83
2022/03/02 02:01:49;;;;;;;;;;;;;;;9.00;26.64;99925.72;4498744;31;34906;-84
2022/03/02 02:04:17;;;;;;;;;;;;;;;8.72;26.56;99931.72;4495702;31;34989;-81
2022/03/02 02:06:44;;;;;;;;;;;;;;;8.52;26.47;99931.09;4498586;31;33642;-83
2022/03/02 02:09:11;;;;;;;;;;;;;;;8.45;26.74;99928.25;4498675;31;32963;-82
2022/03/02 02:11:39;;;;;;;;;;;;;;;8.72;26.79;99923.97;4498751;31;35062;-82
2022/03/02 02:14:06;;;;;;;;;;;;;;;8.63;26.68;99918.50;4494963;31;35217;-82
2022/03/02 02:16:33;;;;;;;;;;;;;;;8.73;26.63;99914.50;4497952;31;34793;-83
2022/03/02 02:19:00;;;;;;;;;;;;;;;8.48;27.27;99923.16;4498682;31;33016;-81
2022/03/02 02:21:27;;;;;;;;;;;;;;;8.57;26.56;99918.31;4498832;31;34129;-84
2022/03/02 02:23:55;;;;;;;;;;;;;;;8.66;25.91;99913.44;4498321;31;34268;-82
2022/03/02 02:26:22;;;;;;;;;;;;;;;8.66;26.12;99909.97;4498273;31;34478;-83
2022/03/02 02:28:49;;;;;;;;;;;;;;;8.72;25.90;99911.06;4498795;31;33628;-81
2022/03/02 02:31:16;;;;;;;;;;;;;;;8.53;26.50;99917.34;4494696;31;34210;-81
2022/03/02 02:33:44;;;;;;;;;;;;;;;8.19;26.87;99914.41;4498357;31;34419;-82
2022/03/02 02:36:11;;;;;;;;;;;;;;;8.36;26.48;99914.97;4498622;31;34753;-83
2022/03/02 02:38:38;;;;;;;;;;;;;;;8.29;26.33;99912.16;4498660;31;34147;-81
2022/03/02 02:41:06;;;;;;;;;;;;;;;8.56;26.06;99910.50;4497592;31;34997;-82
2022/03/02 02:43:33;;;;;;;;;;;;;;;8.45;26.54;99912.75;4498830;31;34165;-83
2022/03/02 02:46:00;;;;;;;;;;;;;;;8.52;26.48;99919.84;4497821;31;34078;-82
2022/03/02 02:48:28;;;;;;;;;;;;;;;8.56;26.16;99908.81;4498131;31;33319;-82
2022/03/02 02:50:55;;;;;;;;;;;;;;;8.41;26.33;99914.34;4498711;31;34274;-82
2022/03/02 02:53:22;;;;;;;;;;;;;;;8.64;26.17;99909.06;4498718;31;34306;-83
2022/03/02 02:55:50;;;;;;;;;;;;;;;8.42;26.66;99918.69;4498270;31;34656;-82
2022/03/02 02:58:17;;;;;;;;;;;;;;;8.52;26.54;99918.16;4497404;31;32974;-81
2022/03/02 03:00:45;;;;;;;;;;;;;;;8.36;26.35;99918.44;4484262;31;34822;-82
2022/03/02 03:03:13;;;;;;;;;;;;;;;8.26;26.95;99917.25;4497442;31;34533;-82
2022/03/02 03:05:40;;;;;;;;;;;;;;;8.13;27.06;99921.94;4498185;31;34907;-82
2022/03/02 03:08:09;;;;;;;;;;;;;;;8.35;26.76;99918.41;4498398;31;34143;-82
2022/03/02 03:10:37;;;;;;;;;;;;;;;8.54;26.08;99915.63;4498185;31;34327;-84
2022/03/02 03:13:04;;;;;;;;;;;;;;;8.47;26.21;99916.25;4498278;31;34198;-82
2022/03/02 03:15:32;;;;;;;;;;;;;;;8.16;26.75;99909.13;4498175;31;34369;-82
2022/03/02 03:17:59;;;;;;;;;;;;;;;8.19;26.79;99915.28;4484041;31;33151;-82
2022/03/02 03:20:27;;;;;;;;;;;;;;;8.29;27.20;99922.50;4497886;31;34192;-82
2022/03/02 03:22:55;;;;;;;;;;;;;;;8.17;26.71;99914.34;4498077;31;35010;-81
2022/03/02 03:25:22;;;;;;;;;;;;;;;8.17;27.07;99921.22;4491800;31;33927;-82
2022/03/02 03:27:50;;;;;;;;;;;;;;;8.12;27.14;99926.22;4498195;31;33529;-81
2022/03/02 03:30:19;;;;;;;;;;;;;;;8.03;27.39;99923.31;4499806;31;34994;-84
2022/03/02 03:32:47;;;;;;;;;;;;;;;8.20;27.27;99911.88;4499905;31;35302;-82
2022/03/02 03:35:17;;;;;;;;;;;;;;;8.27;27.00;99919.00;4499869;31;34000;-82
2022/03/02 03:37:44;;;;;;;;;;;;;;;8.42;26.53;99917.81;4499666;31;34238;-82
2022/03/02 03:40:13;;;;;;;;;;;;;;;8.10;27.12;99920.13;4499938;31;34026;-80
2022/03/02 03:42:40;;;;;;;;;;;;;;;7.94;27.09;99923.88;4499836;31;33712;-82
2022/03/02 03:45:08;;;;;;;;;;;;;;;8.02;26.95;99916.41;4500046;31;34007;-82
2022/03/02 03:47:36;;;;;;;;;;;;;;;7.94;27.26;99912.69;4499433;31;34365;-82
2022/03/02 03:50:03;;;;;;;;;;;;;;;7.91;27.50;99915.16;4500197;31;34198;-82
2022/03/02 03:52:30;;;;;;;;;;;;;;;7.92;27.05;99909.19;4495187;31;34221;-82
2022/03/02 03:54:58;;;;;;;;;;;;;;;7.90;26.84;99909.09;4499540;31;34968;-85
2022/03/02 03:57:25;;;;;;;;;;;;;;;7.95;26.76;99904.09;4499387;31;34172;-81
2022/03/02 03:59:52;;;;;;;;;;;;;;;7.86;27.55;99908.94;4499769;31;35426;-81
2022/03/02 04:02:21;;;;;;;;;;;;;;;7.95;27.18;99906.69;4499371;31;33962;-82
2022/03/02 04:04:48;;;;;;;;;;;;;;;8.14;26.89;99901.31;4499406;31;35191;-82
2022/03/02 04:07:16;;;;;;;;;;;;;;;8.01;26.93;99910.37;4499575;31;34422;-82
2022/03/02 04:09:43;;;;;;;;;;;;;;;7.89;27.42;99903.91;4500064;31;34506;-82
2022/03/02 04:12:11;;;;;;;;;;;;;;;8.29;26.90;99895.78;4499447;31;34431;-82
2022/03/02 04:14:38;;;;;;;;;;;;;;;7.90;27.71;99905.66;4500061;31;35000;-83
2022/03/02 04:17:05;;;;;;;;;;;;;;;7.79;27.28;99898.41;4499248;31;34362;-82
2022/03/02 04:19:33;;;;;;;;;;;;;;;7.84;27.29;99898.59;4499779;31;34922;-82
2022/03/02 04:22:00;;;;;;;;;;;;;;;7.62;27.64;99904.66;4499408;31;35505;-82
2022/03/02 04:24:27;;;;;;;;;;;;;;;7.48;28.63;99904.16;4499169;31;34975;-84
2022/03/02 04:26:55;;;;;;;;;;;;;;;7.70;28.30;99907.53;4499507;31;32931;-85
2022/03/02 04:29:22;;;;;;;;;;;;;;;7.68;28.03;99898.84;4498839;31;34958;-83
2022/03/02 04:31:50;;;;;;;;;;;;;;;7.47;28.46;99901.53;4498973;31;34953;-82
2022/03/02 04:34:17;;;;;;;;;;;;;;;7.43;28.78;99900.53;4499937;31;34082;-83
2022/03/02 04:36:44;;;;;;;;;;;;;;;7.79;28.49;99900.09;4498921;31;32841;-83
2022/03/02 04:39:11;;;;;;;;;;;;;;;7.78;28.14;99906.97;4498901;31;34644;-82
2022/03/02 04:41:39;;;;;;;;;;;;;;;7.72;28.31;99896.41;4499061;31;34461;-85
2022/03/02 04:44:06;;;;;;;;;;;;;;;7.43;28.59;99891.94;4499772;31;34249;-82
2022/03/02 04:46:33;;;;;;;;;;;;;;;7.40;28.43;99882.38;4498439;31;33802;-81
2022/03/02 04:49:10;;;;;;;;;;;;;;;7.39;28.59;99884.91;4499427;31;34032;-82
2022/03/02 04:51:37;;;;;;;;;;;;;;;7.40;28.63;99886.66;4498646;31;34320;-82
2022/03/02 04:54:05;;;;;;;;;;;;;;;7.82;27.92;99884.72;4498717;31;34356;-85
2022/03/02 04:56:33;;;;;;;;;;;;;;;7.64;28.39;99877.19;4499159;31;33519;-82
2022/03/02 04:59:01;;;;;;;;;;;;;;;7.79;27.91;99876.88;4498011;31;34246;-85
2022/03/02 05:01:29;;;;;;;;;;;;;;;7.42;28.37;99879.81;4499595;31;35325;-85
2022/03/02 05:03:56;;;;;;;;;;;;;;;7.64;28.04;99874.62;4499013;31;34968;-82
2022/03/02 05:06:23;;;;;;;;;;;;;;;7.69;27.92;99875.69;4498890;31;33014;-83
2022/03/02 05:08:51;;;;;;;;;;;;;;;7.43;28.46;99871.28;4499200;31;34592;-83
2022/03/02 05:11:20;;;;;;;;;;;;;;;6.96;29.01;99868.66;4499491;31;34470;-82
2022/03/02 05:13:47;;;;;;;;;;;;;;;7.30;28.92;99869.94;4499061;31;34323;-82
2022/03/02 05:16:14;;;;;;;;;;;;;;;7.43;28.90;99873.88;4498606;31;34323;-82
2022/03/02 05:18:44;;;;;;;;;;;;;;;7.64;28.12;99877.19;4498295;31;33754;-84
2022/03/02 05:21:12;;;;;;;;;;;;;;;7.54;28.22;99878.59;4498137;31;34084;-81
2022/03/02 05:23:39;;;;;;;;;;;;;;;7.72;28.23;99877.47;4493386;31;34223;-82
2022/03/02 05:26:06;;;;;;;;;;;;;;;7.46;28.62;99876.53;4499566;31;34178;-86
2022/03/02 05:28:34;;;;;;;;;;;;;;;7.68;28.52;99878.19;4499037;31;35070;-81
2022/03/02 05:31:02;;;;;;;;;;;;;;;7.79;28.50;99872.59;4495787;31;34167;-81
2022/03/02 05:33:29;;;;;;;;;;;;;;;7.59;28.81;99872.72;4498909;31;34320;-85
2022/03/02 05:35:56;;;;;;;;;;;;;;;7.57;28.85;99870.94;4498786;31;33137;-83
2022/03/02 05:38:23;;;;;;;;;;;;;;;7.75;28.80;99865.56;4499328;31;34174;-81
2022/03/02 05:40:51;;;;;;;;;;;;;;;7.87;28.50;99859.06;4497883;31;34253;-82
2022/03/02 05:43:18;;;;;;;;;;;;;;;7.85;28.59;99865.91;4499082;31;34928;-80
2022/03/02 05:45:45;;;;;;;;;;;;;;;7.79;28.67;99872.59;4499021;31;33643;-81
2022/03/02 05:48:12;;;;;;;;;;;;;;;7.62;28.89;99868.53;4498823;31;33844;-81
2022/03/02 05:50:39;;;;;;;;;;;;;;;7.70;28.65;99871.41;4497049;31;34528;-81
2022/03/02 05:53:08;;;;;;;;;;;;;;;7.73;28.68;99864.66;4498663;31;34261;-80
2022/03/02 05:55:35;;;;;;;;;;;;;;;7.86;28.34;99857.31;4499149;31;33309;-81
2022/03/02 05:58:02;;;;;;;;;;;;;;;7.71;28.58;99867.97;4499017;31;34850;-81
2022/03/02 06:00:30;;;;;;;;;;;;;;;7.86;28.38;99858.19;4497944;31;34542;-83
2022/03/02 06:02:57;;;;;;;;;;;;;;;7.86;28.45;99857.31;4498891;31;34084;-81
2022/03/02 06:05:25;;;;;;;;;;;;;;;7.76;28.99;99856.09;4499014;31;33498;-80
2022/03/02 06:07:52;;;;;;;;;;;;;;;7.47;29.75;99861.13;4498571;31;34304;-80
2022/03/02 06:10:20;;;;;;;;;;;;;;;7.75;29.04;99862.09;4498873;31;33832;-81
2022/03/02 06:12:47;;;;;;;;;;;;;;;7.86;29.11;99857.31;4495926;31;34689;-82
2022/03/02 06:15:14;;;;;;;;;;;;;;;7.77;29.17;99863.91;4499138;31;33545;-82
2022/03/02 06:17:42;;;;;;;;;;;;;;;7.99;28.84;99855.22;4499086;31;33966;-82
2022/03/02 06:20:10;;;;;;;;;;;;;;;8.16;28.41;99853.19;4498485;31;34410;-82
2022/03/02 06:22:37;;;;;;;;;;;;;;;7.90;28.94;99859.19;4498829;31;34851;-80
2022/03/02 06:25:07;;;;;;;;;;;;;;;8.08;29.01;99854.66;4496998;31;33139;-81
2022/03/02 06:27:34;;;;;;;;;;;;;;;8.30;28.85;99861.41;4498773;31;34810;-80
2022/03/02 06:30:02;;;;;;;;;;;;;;;8.13;28.81;99857.38;4497714;31;33990;-81
2022/03/02 06:32:31;;;;;;;;;;;;;;;8.10;29.03;99863.31;4498998;31;34120;-81
2022/03/02 06:34:59;;;;;;;;;;;;;;;8.34;28.90;99867.56;4498887;31;34295;-81
2022/03/02 06:37:27;;;;;;;;;;;;;;;8.58;28.73;99858.03;4495183;31;34915;-82
2022/03/02 06:39:54;;;;;;;;;;;;;;;8.61;28.43;99858.13;4498902;31;33986;-81
2022/03/02 06:42:27;;;;;;;;;;;;;;;8.59;28.18;99862.34;4497538;31;33841;-81
2022/03/02 06:44:55;;;;;;;;;;;;;;;9.11;27.37;99865.69;4497554;31;33550;-81
2022/03/02 06:47:28;;;;;;;;;;;;;;;9.11;27.37;99863.09;4484272;31;33037;-81
2022/03/02 06:49:58;;;;;;;;;;;;;;;8.90;27.16;99861.63;4497420;31;34045;-81
2022/03/02 06:52:36;;;;;;;;;;;;;;;8.89;27.05;99864.16;4498846;31;33903;-81
2022/03/02 06:55:05;;;;;;;;;;;;;;;8.94;26.31;99862.56;4498707;31;33060;-82
2022/03/02 06:57:32;;;;;;;;;;;;;;;8.00;27.39;99856.97;4497528;31;33943;-82
2022/03/02 07:00:01;;;;;;;;;;;;;;;8.23;27.16;99855.16;4504683;31;35307;-82
2022/03/02 07:02:48;;;;;;;;;;;;;;;8.68;26.48;99856.63;4502232;31;33828;-82
2022/03/02 07:05:16;;;;;;;;;;;;;;;8.55;26.82;99852.75;4516966;31;34015;-82
2022/03/02 07:07:44;;;;;;;;;;;;;;;7.67;27.87;99861.84;4503907;31;33711;-82
2022/03/02 07:10:11;;;;;;;;;;;;;;;7.95;27.96;99855.91;4503674;31;33808;-81
2022/03/02 07:12:39;;;;;;;;;;;;;;;8.99;26.08;99853.25;4503782;31;34148;-82
2022/03/02 07:15:07;;;;;;;;;;;;;;;7.70;27.81;99856.78;4489710;31;34043;-81
2022/03/02 07:17:34;;;;;;;;;;;;;;;7.89;27.79;99847.09;4504008;31;34384;-82
2022/03/02 07:20:02;;;;;;;;;;;;;;;8.07;28.10;99846.81;4489250;31;34397;-82
2022/03/02 07:22:33;;;;;;;;;;;;;;;7.83;28.32;99846.88;4508172;31;34176;-79
2022/03/02 07:25:05;;;;;;;;;;;;;;;7.48;28.66;99849.09;4503915;31;34199;-82
2022/03/02 07:27:32;;;;;;;;;;;;;;;7.88;28.19;99840.16;4506920;31;34836;-82
2022/03/02 07:29:59;;;;;;;;;;;;;;;8.65;27.46;99836.72;4490140;31;35161;-82
2022/03/02 07:32:30;;;;;;;;;;;;;;;6.80;30.36;99846.59;4488102;31;34078;-81
2022/03/02 07:35:00;;;;;;;;;;;;;;;8.04;28.73;99829.56;4512343;31;33020;-82
2022/03/02 07:37:27;;;;;;;;;;;;;;;8.15;29.05;99838.53;4515300;31;34441;-81
2022/03/02 07:39:55;;;;;;;;;;;;;;;8.17;29.11;99839.44;4485035;31;34196;-81
2022/03/02 07:42:22;;;;;;;;;;;;;;;7.60;29.06;99846.94;4491425;31;35092;-81
2022/03/02 07:44:52;;;;;;;;;;;;;;;7.81;29.20;99844.25;4518682;31;33080;-81
2022/03/02 07:47:20;;;;;;;;;;;;;;;8.38;28.05;99833.28;4515538;31;33854;-81
2022/03/02 07:49:47;;;;;;;;;;;;;;;7.60;29.71;99843.50;4504602;31;34988;-81
2022/03/02 07:52:16;;;;;;;;;;;;;;;7.23;30.00;99832.72;4518944;31;35179;-81
2022/03/02 07:54:43;;;;;;;;;;;;;;;7.49;29.70;99837.94;4519419;31;33607;-81
2022/03/02 07:57:11;;;;;;;;;;;;;;;8.17;30.23;99826.53;4502912;31;35081;-81
2022/03/02 07:59:44;;;;;;;;;;;;;;;8.50;28.46;99834.53;4499145;31;34619;-81
2022/03/02 08:02:12;;;;;;;;;;;;;;;8.10;28.37;99824.56;4497240;31;33426;-81
2022/03/02 08:04:41;;;;;;;;;;;;;;;8.47;27.87;99823.22;4502786;31;33542;-81
2022/03/02 08:07:10;;;;;;;;;;;;;;;9.00;27.07;99821.38;4502955;31;34787;-81
2022/03/02 08:09:38;;;;;;;;;;;;;;;6.53;30.87;99827.47;4502367;31;35177;-81
2022/03/02 08:12:07;;;;;;;;;;;;;;;8.40;28.19;99811.81;4499513;31;34207;-81
2022/03/02 08:14:34;;;;;;;;;;;;;;;8.88;27.36;99813.28;4500069;31;33621;-85
2022/03/02 08:17:02;;;;;;;;;;;;;;;7.97;28.57;99809.50;4499853;31;33990;-81
2022/03/02 08:19:33;;;;;;;;;;;;;;;7.80;28.98;99812.41;4486248;31;34198;-81
2022/03/02 08:22:10;;;;;;;;;;;;;;;8.64;28.56;99818.59;4484088;32;35016;-81
2022/03/02 08:24:42;;;;;;;;;;;;;;;8.80;28.10;99801.84;4484189;32;33523;-81
2022/03/02 08:27:10;;;;;;;;;;;;;;;7.93;28.86;99803.37;4482979;32;34652;-83
2022/03/02 08:29:39;;;;;;;;;;;;;;;8.89;28.03;99797.78;4483673;32;35375;-86
2022/03/02 08:32:07;;;;;;;;;;;;;;;8.18;28.77;99786.97;4499349;31;34365;-82
2022/03/02 08:34:37;;;;;;;;;;;;;;;8.52;28.86;99790.63;4499827;31;33070;-85
2022/03/02 08:37:04;;;;;;;;;;;;;;;8.27;29.29;99784.69;4498443;31;33680;-83
2022/03/02 08:39:32;;;;;;;;;;;;;;;9.16;27.84;99787.37;4494475;31;34613;-83
2022/03/02 08:41:59;;;;;;;;;;;;;;;9.86;27.13;99777.16;4484215;32;35106;-83
2022/03/02 08:44:26;;;;;;;;;;;;;;;9.70;27.02;99787.13;4483949;31;32992;-86
2022/03/02 08:46:54;;;;;;;;;;;;;;;9.41;27.06;99783.75;4484257;32;33852;-83
2022/03/02 08:49:21;;;;;;;;;;;;;;;9.77;27.01;99776.91;4483064;32;34010;-81
2022/03/02 08:51:49;;;;;;;;;;;;;;;9.45;27.21;99769.19;4483968;32;34845;-86
2022/03/02 08:54:16;;;;;;;;;;;;;;;10.52;25.78;99765.81;4484302;32;34128;-83
2022/03/02 08:56:43;;;;;;;;;;;;;;;10.39;25.83;99759.47;4484240;32;35041;-82
2022/03/02 08:59:13;;;;;;;;;;;;;;;10.44;25.43;99761.31;4494660;31;34792;-83
2022/03/02 09:01:42;;;;;;;;;;;;;;;10.34;26.31;99755.88;4497603;31;34483;-84
2022/03/02 09:04:12;;;;;;;;;;;;;;;9.49;27.29;99764.13;4497445;31;34566;-81
2022/03/02 09:06:43;;;;;;;;;;;;;;;8.69;28.49;99755.84;4498757;31;34193;-83
2022/03/02 09:09:10;;;;;;;;;;;;;;;10.17;26.18;99761.53;4499329;31;34501;-83
2022/03/02 09:11:42;;;;;;;;;;;;;;;10.47;25.66;99752.75;4499442;31;34927;-83
2022/03/02 09:14:09;;;;;;;;;;;;;;;10.85;25.30;99750.13;4499274;31;32972;-83
2022/03/02 09:16:39;;;;;;;;;;;;;;;11.11;25.01;99751.53;4498255;31;34208;-83
2022/03/02 09:19:07;;;;;;;;;;;;;;;10.99;25.09;99755.59;4498905;31;35149;-82
2022/03/02 09:21:36;;;;;;;;;;;;;;;12.03;23.16;99742.81;4498119;31;34147;-83
2022/03/02 09:24:05;;;;;;;;;;;;;;;9.80;25.99;99751.09;4499477;31;34222;-83
2022/03/02 09:26:32;;;;;;;;;;;;;;;10.32;26.06;99747.22;4499270;31;34302;-83
2022/03/02 09:29:00;;;;;;;;;;;;;;;9.01;27.36;99746.41;4484315;31;34476;-83
2022/03/02 09:31:27;;;;;;;;;;;;;;;9.99;26.39;99741.22;4483642;32;34300;-82
2022/03/02 09:33:55;;;;;;;;;;;;;;;10.35;26.02;99742.09;4482330;32;33334;-82
2022/03/02 09:36:23;;;;;;;;;;;;;;;10.70;24.95;99730.78;4483758;32;34918;-82
2022/03/02 09:38:50;;;;;;;;;;;;;;;11.60;23.67;99725.59;4483677;32;34206;-81
2022/03/02 09:41:29;;;;;;;;;;;;;;;10.95;24.51;99727.00;4483359;32;34919;-82
2022/03/02 09:43:58;;;;;;;;;;;;;;;10.87;24.59;99738.03;4482677;32;33295;-82
2022/03/02 09:46:30;;;;;;;;;;;;;;;10.59;24.91;99737.47;4482249;32;34894;-82
2022/03/02 09:49:04;;;;;;;;;;;;;;;10.32;25.14;99736.84;4485330;31;34155;-82
2022/03/02 09:51:31;;;;;;;;;;;;;;;10.37;25.24;99732.63;4499162;31;34218;-81
2022/03/02 09:53:59;;;;;;;;;;;;;;;11.45;23.80;99724.47;4499033;31;33292;-83
2022/03/02 09:56:26;;;;;;;;;;;;;;;10.66;24.61;99736.75;4497922;31;34954;-81
2022/03/02 09:58:53;;;;;;;;;;;;;;;10.47;25.08;99734.59;4499253;31;35243;-81
2022/03/02 10:01:21;;;;;;;;;;;;;;;10.60;25.26;99727.97;4499018;31;34089;-82
2022/03/02 10:03:51;;;;;;;;;;;;;;;9.94;26.60;99718.66;4499197;31;33381;-81
2022/03/02 10:06:23;;;;;;;;;;;;;;;10.44;25.46;99724.16;4497894;31;34434;-82
2022/03/02 10:08:51;;;;;;;;;;;;;;;10.77;25.34;99720.56;4498357;31;34182;-82
2022/03/02 10:11:20;;;;;;;;;;;;;;;11.19;25.20;99711.00;4498779;31;34627;-81
2022/03/02 10:13:47;;;;;;;;;;;;;;;12.11;23.88;99701.34;4499046;31;34074;-81
2022/03/02 10:16:19;;;;;;;;;;;;;;;13.10;22.39;99699.16;4499161;31;34564;-81
2022/03/02 10:18:51;;;;;;;;;;;;;;;13.21;22.34;99689.75;4497923;31;35197;-85
2022/03/02 10:21:19;;;;;;;;;;;;;;;13.08;22.46;99693.97;4497751;31;33977;-83
2022/03/02 10:23:46;;;;;;;;;;;;;;;13.35;22.78;99689.94;4498169;31;33567;-83
2022/03/02 10:26:26;;;;;;;;;;;;;;;11.47;24.08;99689.88;4499036;31;33819;-82
2022/03/02 10:28:55;;;;;;;;;;;;;;;12.56;22.44;99689.84;4499125;31;35296;-82
2022/03/02 10:31:41;;;;;;;;;;;;;;;12.61;22.63;99681.28;4499467;31;34805;-82
2022/03/02 10:34:12;;;;;;;;;;;;;;;12.87;22.05;99686.75;4499834;31;34095;-86
2022/03/02 10:36:40;;;;;;;;;;;;;;;12.96;21.53;99677.34;4497191;31;33688;-82
2022/03/02 10:39:07;;;;;;;;;;;;;;;11.00;24.16;99672.59;4488190;31;34193;-82
2022/03/02 10:41:39;;;;;;;;;;;;;;;11.80;23.43;99668.78;4498709;31;35287;-83
2022/03/02 10:44:16;;;;;;;;;;;;;;;12.51;22.38;99660.31;4492490;31;34468;-82
2022/03/02 10:46:45;;;;;;;;;;;;;;;12.26;22.53;99669.50;4480480;31;34109;-82
2022/03/02 10:49:17;;;;;;;;;;;;;;;13.16;22.33;99662.78;4482400;31;34165;-80
2022/03/02 10:51:44;;;;;;;;;;;;;;;11.91;22.97;99659.47;4481202;31;34207;-80
2022/03/02 10:54:14;;;;;;;;;;;;;;;12.12;22.49;99649.41;4480790;31;34049;-85
2022/03/02 10:56:42;;;;;;;;;;;;;;;11.23;23.68;99648.78;4481467;32;33696;-82
2022/03/02 10:59:16;;;;;;;;;;;;;;;11.67;24.26;99642.63;4481061;32;34745;-85
2022/03/02 11:01:51;;;;;;;;;;;;;;;11.35;23.49;99643.81;4485428;31;34119;-84
2022/03/02 11:04:20;;;;;;;;;;;;;;;12.66;23.17;99630.16;4496575;31;33134;-84
2022/03/02 11:06:47;;;;;;;;;;;;;;;13.09;21.49;99628.00;4496895;31;34293;-86
2022/03/02 11:09:34;;;;;;;;;;;;;;;12.24;22.46;99633.09;4498080;31;34615;-84
2022/03/02 11:12:02;;;;;;;;;;;;;;;13.10;21.28;99626.28;4498471;31;34787;-85
2022/03/02 11:14:29;;;;;;;;;;;;;;;12.72;21.32;99618.94;4484377;31;33260;-85
2022/03/02 11:17:13;;;;;;;;;;;;;;;13.03;21.71;99620.16;4495337;31;34000;-80
2022/03/02 11:19:45;;;;;;;;;;;;;;;14.16;20.35;99617.56;4496970;31;34693;-84
2022/03/02 11:22:13;;;;;;;;;;;;;;;12.23;21.89;99617.47;4497901;31;34165;-81
2022/03/02 11:24:41;;;;;;;;;;;;;;;12.91;21.81;99605.25;4498215;31;33528;-83
2022/03/02 11:27:24;;;;;;;;;;;;;;;13.03;21.34;99603.66;4491326;31;34457;-81
2022/03/02 11:30:02;;;;;;;;;;;;;;;14.40;20.17;99603.81;4496834;31;33573;-82
2022/03/02 11:32:31;;;;;;;;;;;;;;;13.29;22.13;99601.31;4497774;31;35583;-80
2022/03/02 11:35:01;;;;;;;;;;;;;;;13.59;21.58;99604.16;4496539;31;34282;-80
2022/03/02 11:37:31;;;;;;;;;;;;;;;13.57;21.59;99599.84;4496460;31;34893;-80
2022/03/02 11:39:59;;;;;;;;;;;;;;;15.02;20.25;99584.88;4493712;31;35344;-85
2022/03/02 11:42:26;;;;;;;;;;;;;;;14.16;20.32;99581.06;4497854;31;33815;-86
2022/03/02 11:44:55;;;;;;;;;;;;;;;12.92;21.86;99585.34;4497775;31;33412;-86
2022/03/02 11:47:24;;;;;;;;;;;;;;;14.16;20.48;99574.97;4492591;31;34265;-80
2022/03/02 11:49:52;;;;;;;;;;;;;;;14.02;21.44;99580.16;4498663;31;34130;-84
2022/03/02 11:52:20;;;;;;;;;;;;;;;14.48;20.91;99570.78;4498335;31;34815;-80
2022/03/02 11:54:50;;;;;;;;;;;;;;;12.56;23.07;99573.69;4499759;31;33228;-81
2022/03/02 11:57:18;;;;;;;;;;;;;;;12.28;23.22;99575.09;4498955;31;33672;-81
2022/03/02 11:59:46;;;;;;;;;;;;;;;10.41;25.43;99569.44;4500563;31;35310;-86
2022/03/02 12:02:17;;;;;;;;;;;;;;;11.44;24.29;99577.34;4502540;31;34436;-82
2022/03/02 12:04:58;;;;;;;;;;;;;;;12.47;23.32;99565.78;4500000;31;33055;-84
2022/03/02 12:07:26;;;;;;;;;;;;;;;13.04;22.16;99559.44;4499179;31;35222;-81
2022/03/02 12:09:54;;;;;;;;;;;;;;;13.20;21.83;99554.34;4499014;31;34065;-81
2022/03/02 12:12:22;;;;;;;;;;;;;;;14.26;20.98;99554.19;4498996;31;33847;-82
2022/03/02 12:14:56;;;;;;;;;;;;;;;14.84;19.74;99553.50;4500081;31;33227;-82
2022/03/02 12:17:25;;;;;;;;;;;;;;;13.92;21.06;99553.16;4499955;31;34365;-85
2022/03/02 12:19:53;;;;;;;;;;;;;;;11.87;22.24;99551.16;4498832;31;34299;-83
2022/03/02 12:22:21;;;;;;;;;;;;;;;12.05;22.76;99548.81;4498358;31;34812;-81
2022/03/02 12:24:48;;;;;;;;;;;;;;;10.95;23.61;99548.00;4498688;31;34276;-82
2022/03/02 12:27:16;;;;;;;;;;;;;;;11.99;23.43;99538.31;4498549;31;34351;-82
2022/03/02 12:29:45;;;;;;;;;;;;;;;12.58;22.21;99538.16;4499685;31;34292;-87
2022/03/02 12:32:17;;;;;;;;;;;;;;;11.29;23.46;99542.47;4498502;31;34344;-81
2022/03/02 12:34:45;;;;;;;;;;;;;;;12.24;22.87;99538.66;4498629;31;32916;-82
2022/03/02 12:37:13;;;;;;;;;;;;;;;13.41;21.62;99525.03;4498819;31;34265;-82
2022/03/02 12:39:41;;;;;;;;;;;;;;;13.05;21.25;99518.66;4499897;31;34236;-81
2022/03/02 12:42:09;;;;;;;;;;;;;;;13.51;21.53;99525.09;4499633;31;35007;-80
2022/03/02 12:44:41;;;;;;;;;;;;;;;13.36;21.11;99522.41;4499806;31;33398;-82
2022/03/02 12:47:09;;;;;;;;;;;;;;;13.61;21.01;99521.69;4498471;31;34559;-82
2022/03/02 12:49:37;;;;;;;;;;;;;;;12.47;21.83;99515.50;4498201;31;34413;-82
2022/03/02 12:52:05;;;;;;;;;;;;;;;13.02;21.88;99516.03;4499875;31;33311;-82
2022/03/02 12:54:33;;;;;;;;;;;;;;;12.51;22.31;99504.28;4498601;31;34164;-87
2022/03/02 12:57:02;;;;;;;;;;;;;;;12.17;21.79;99515.16;4474023;31;782765;-80
2022/03/02 12:59:30;;;;;;;;;;;;;;;12.59;21.23;99510.44;4499448;31;34155;-86